Time;durP1;ratioP1;P1;durP2;ratioP2;P2;SDS_P1;SDS_P2;PMS_P1;PMS_P2;Temp;Humidity;BMP_temperature;BMP_pressure;BME280_temperature;BME280_humidity;BME280_pressure;Samples;Min_cycle;Max_cycle;Signal;HPM_P1;HPM_P2
2023/03/17 00:00:39;;;;;;;6.17;1.83;;;9.60;70.70;;;;;;4995258;28;20225;-82
2023/03/17 00:03:06;;;;;;;3.93;2.10;;;9.60;70.70;;;;;;4995541;28;20536;-81
2023/03/17 00:05:34;;;;;;;4.43;1.73;;;9.60;70.60;;;;;;4995358;28;20034;-81
2023/03/17 00:08:10;;;;;;;4.10;1.87;;;9.60;70.60;;;;;;4995387;28;20022;-82
2023/03/17 00:10:36;;;;;;;5.23;1.80;;;9.60;70.60;;;;;;5013401;28;20022;-81
2023/03/17 00:13:02;;;;;;;6.53;2.53;;;9.50;70.60;;;;;;4995537;28;20041;-81
2023/03/17 00:15:29;;;;;;;3.90;2.00;;;9.50;70.70;;;;;;4995281;28;20030;-81
2023/03/17 00:17:56;;;;;;;7.70;2.67;;;9.50;70.70;;;;;;5012127;28;20133;-82
2023/03/17 00:20:26;;;;;;;4.43;2.17;;;9.50;70.80;;;;;;4995434;28;20042;-82
2023/03/17 00:22:54;;;;;;;4.50;1.93;;;9.50;70.90;;;;;;5011466;28;20058;-82
2023/03/17 00:25:22;;;;;;;5.33;2.07;;;9.40;70.90;;;;;;5012800;28;20078;-82
2023/03/17 00:27:48;;;;;;;4.27;1.70;;;9.40;70.90;;;;;;5013266;28;20022;-82
2023/03/17 00:30:14;;;;;;;7.30;2.40;;;9.40;70.90;;;;;;5007046;28;20398;-82
2023/03/17 00:32:40;;;;;;;4.53;2.10;;;9.40;71.00;;;;;;4995065;28;20081;-82
2023/03/17 00:35:28;;;;;;;5.20;2.00;;;9.40;71.20;;;;;;4995384;28;20470;-81
2023/03/17 00:37:56;;;;;;;4.00;2.00;;;9.30;71.00;;;;;;5011909;28;20080;-82
2023/03/17 00:40:25;;;;;;;6.20;2.10;;;9.30;71.00;;;;;;4995165;28;20034;-82
2023/03/17 00:42:52;;;;;;;6.30;2.50;;;9.30;71.10;;;;;;5012713;28;20061;-82
2023/03/17 00:45:20;;;;;;;4.30;2.40;;;9.20;71.10;;;;;;4995066;28;20041;-82
2023/03/17 00:47:46;;;;;;;7.17;2.13;;;9.20;71.10;;;;;;5004705;28;20037;-82
2023/03/17 00:50:16;;;;;;;4.53;1.90;;;9.20;71.30;;;;;;4995266;28;20022;-82
2023/03/17 00:52:44;;;;;;;9.23;2.47;;;9.20;71.30;;;;;;4994955;28;20041;-82
2023/03/17 00:55:10;;;;;;;5.33;2.10;;;9.10;71.30;;;;;;4979026;28;20061;-82
2023/03/17 00:57:38;;;;;;;5.33;1.77;;;9.10;71.40;;;;;;4979073;28;20026;-82
2023/03/17 01:00:06;;;;;;;4.73;1.80;;;9.10;71.50;;;;;;4995200;28;20022;-82
2023/03/17 01:02:32;;;;;;;5.90;2.10;;;9.00;71.50;;;;;;4981422;28;20112;-81
2023/03/17 01:04:59;;;;;;;4.67;2.00;;;9.00;71.60;;;;;;4998671;28;20628;-82
2023/03/17 01:07:27;;;;;;;4.50;2.13;;;9.00;71.50;;;;;;5015036;28;20463;-82
2023/03/17 01:09:53;;;;;;;5.13;2.13;;;9.00;72.20;;;;;;4982420;28;20026;-82
2023/03/17 01:12:19;;;;;;;4.83;1.80;;;9.00;71.60;;;;;;4998889;28;20037;-82
2023/03/17 01:14:45;;;;;;;4.43;1.90;;;8.90;71.70;;;;;;4982237;28;20026;-82
2023/03/17 01:17:17;;;;;;;4.53;1.93;;;8.90;71.80;;;;;;4998885;28;20680;-82
2023/03/17 01:19:44;;;;;;;5.40;1.57;;;8.90;71.90;;;;;;4998808;28;20032;-82
2023/03/17 01:22:10;;;;;;;5.07;1.70;;;8.90;72.00;;;;;;4998941;28;20018;-82
2023/03/17 01:24:36;;;;;;;6.17;2.00;;;8.80;72.00;;;;;;4999177;28;20034;-82
2023/03/17 01:27:02;;;;;;;6.60;1.77;;;8.90;72.10;;;;;;4998581;28;20084;-82
2023/03/17 01:29:27;;;;;;;4.13;1.80;;;8.90;72.20;;;;;;5016228;28;20033;-82
2023/03/17 01:31:53;;;;;;;5.80;1.70;;;8.90;72.20;;;;;;4997806;28;20030;-81
2023/03/17 01:34:19;;;;;;;5.00;1.83;;;8.80;72.10;;;;;;4982195;28;20030;-82
2023/03/17 01:36:45;;;;;;;3.90;1.87;;;8.80;72.20;;;;;;4998113;28;20030;-82
2023/03/17 01:39:11;;;;;;;6.27;2.20;;;8.90;72.30;;;;;;4997991;28;20030;-81
2023/03/17 01:41:38;;;;;;;4.60;1.67;;;8.80;72.30;;;;;;4981937;28;20112;-81
2023/03/17 01:44:06;;;;;;;3.47;1.50;;;8.80;72.30;;;;;;4997786;28;20026;-81
2023/03/17 01:46:34;;;;;;;3.70;1.70;;;8.80;72.40;;;;;;5014880;28;20378;-82
2023/03/17 01:49:31;;;;;;;5.47;2.20;;;8.80;72.40;;;;;;4998270;28;20033;-81
2023/03/17 01:52:03;;;;;;;3.67;1.67;;;8.70;72.40;;;;;;4978314;28;20044;-82
2023/03/17 01:54:44;;;;;;;4.20;1.63;;;8.70;72.50;;;;;;5015695;28;20034;-82
2023/03/17 01:57:22;;;;;;;3.47;1.40;;;8.70;72.60;;;;;;5014125;28;20030;-82
2023/03/17 01:59:57;;;;;;;5.33;1.60;;;8.70;72.50;;;;;;4997780;28;20014;-82
2023/03/17 02:02:30;;;;;;;4.77;1.50;;;8.70;72.60;;;;;;4997076;28;20026;-82
2023/03/17 02:04:57;;;;;;;4.00;1.77;;;8.70;72.50;;;;;;4997321;28;20029;-82
2023/03/17 02:07:25;;;;;;;3.53;1.83;;;8.70;72.50;;;;;;4997426;28;20026;-82
2023/03/17 02:09:52;;;;;;;6.77;1.90;;;8.70;72.60;;;;;;4997324;28;20390;-82
2023/03/17 02:12:21;;;;;;;4.47;1.67;;;8.70;72.50;;;;;;4980543;28;20113;-82
2023/03/17 02:14:46;;;;;;;8.60;2.33;;;8.70;72.60;;;;;;5015040;28;20026;-82
2023/03/17 02:17:13;;;;;;;5.17;2.17;;;8.60;72.60;;;;;;4980913;28;20041;-82
2023/03/17 02:19:39;;;;;;;3.87;1.30;;;8.60;72.70;;;;;;4997384;28;20026;-83
2023/03/17 02:22:05;;;;;;;5.20;2.10;;;8.60;72.70;;;;;;4997219;28;20046;-83
2023/03/17 02:24:33;;;;;;;5.37;1.50;;;8.50;72.80;;;;;;5014687;28;20041;-82
2023/03/17 02:27:10;;;;;;;4.70;1.80;;;8.50;72.80;;;;;;5014821;28;20029;-83
2023/03/17 02:29:38;;;;;;;6.67;1.53;;;8.50;72.80;;;;;;5013124;28;20072;-83
2023/03/17 02:32:05;;;;;;;4.93;1.40;;;8.50;72.90;;;;;;5012980;28;20386;-83
2023/03/17 02:34:32;;;;;;;3.97;1.57;;;8.50;73.00;;;;;;4996793;28;20110;-82
2023/03/17 02:36:58;;;;;;;4.50;1.53;;;8.40;73.00;;;;;;4996683;28;20022;-82
2023/03/17 02:39:24;;;;;;;5.53;1.63;;;8.40;73.10;;;;;;4996979;28;20022;-82
2023/03/17 02:41:50;;;;;;;4.80;1.77;;;8.40;73.20;;;;;;4996606;28;20410;-82
2023/03/17 02:44:16;;;;;;;5.30;1.90;;;8.40;73.20;;;;;;4997013;28;20398;-82
2023/03/17 02:46:42;;;;;;;4.13;1.77;;;8.40;73.20;;;;;;5012784;28;20428;-82
2023/03/17 02:49:08;;;;;;;5.90;2.10;;;8.40;73.30;;;;;;4996974;28;20109;-82
2023/03/17 02:51:34;;;;;;;5.10;1.97;;;8.40;73.40;;;;;;5014085;28;20025;-82
2023/03/17 02:54:00;;;;;;;4.07;1.80;;;8.30;73.30;;;;;;4980442;28;20042;-82
2023/03/17 02:56:25;;;;;;;4.67;1.60;;;8.30;73.30;;;;;;5012470;28;20034;-81
2023/03/17 02:58:51;;;;;;;5.13;1.70;;;8.30;73.40;;;;;;5012509;28;20160;-82
2023/03/17 03:01:17;;;;;;;4.73;1.70;;;8.30;73.50;;;;;;4995731;28;20145;-82
2023/03/17 03:03:43;;;;;;;5.20;1.87;;;8.30;73.60;;;;;;5012835;28;20029;-81
2023/03/17 03:06:08;;;;;;;5.47;1.93;;;8.40;73.70;;;;;;4979887;28;20037;-81
2023/03/17 03:08:35;;;;;;;6.63;2.30;;;8.40;73.80;;;;;;4996318;28;20085;-81
2023/03/17 03:11:01;;;;;;;5.67;2.07;;;8.40;73.70;;;;;;4996424;28;20057;-81
2023/03/17 03:13:27;;;;;;;4.63;2.00;;;8.40;73.70;;;;;;4996305;28;20032;-81
2023/03/17 03:15:53;;;;;;;4.57;1.53;;;8.40;73.70;;;;;;5012523;28;20124;-81
2023/03/17 03:18:18;;;;;;;4.67;2.00;;;8.40;73.70;;;;;;4996526;28;20470;-81
2023/03/17 03:20:45;;;;;;;4.63;1.87;;;8.40;73.80;;;;;;4995802;28;20433;-81
2023/03/17 03:23:12;;;;;;;5.40;2.10;;;8.40;73.80;;;;;;4980070;28;20038;-82
2023/03/17 03:25:38;;;;;;;4.37;2.03;;;8.40;73.90;;;;;;4994832;28;20096;-81
2023/03/17 03:28:07;;;;;;;5.67;2.13;;;8.40;73.90;;;;;;4995911;28;20474;-81
2023/03/17 03:30:34;;;;;;;3.43;1.67;;;8.40;73.90;;;;;;4995456;28;20552;-81
2023/03/17 03:33:00;;;;;;;5.90;1.90;;;8.50;74.00;;;;;;4979977;28;20030;-81
2023/03/17 03:35:27;;;;;;;3.73;1.70;;;8.50;73.90;;;;;;4995943;28;20378;-83
2023/03/17 03:37:52;;;;;;;5.27;2.23;;;8.50;74.00;;;;;;4995987;28;20393;-81
2023/03/17 03:40:18;;;;;;;5.57;2.03;;;8.50;74.00;;;;;;4979353;28;20056;-81
2023/03/17 03:42:44;;;;;;;4.43;2.07;;;8.50;73.90;;;;;;4979252;28;20045;-82
2023/03/17 03:45:10;;;;;;;5.17;1.63;;;8.50;73.80;;;;;;4995776;28;20072;-81
2023/03/17 03:47:35;;;;;;;5.07;1.80;;;8.60;73.80;;;;;;4995788;28;20494;-81
2023/03/17 03:50:01;;;;;;;5.87;1.83;;;8.60;73.80;;;;;;5012113;28;20026;-81
2023/03/17 03:52:27;;;;;;;4.97;1.90;;;8.60;73.80;;;;;;4979733;28;20041;-81
2023/03/17 03:54:52;;;;;;;4.23;1.53;;;8.60;73.70;;;;;;4979415;28;20034;-81
2023/03/17 03:57:18;;;;;;;6.57;1.87;;;8.60;73.80;;;;;;5012882;28;20525;-81
2023/03/17 03:59:44;;;;;;;5.93;1.90;;;8.60;73.80;;;;;;4979213;28;20022;-82
2023/03/17 04:02:10;;;;;;;6.03;1.87;;;8.60;73.90;;;;;;5011755;28;20394;-81
2023/03/17 04:04:36;;;;;;;7.87;2.13;;;8.60;73.90;;;;;;4979475;28;20026;-81
2023/03/17 04:07:01;;;;;;;4.60;1.63;;;8.60;73.80;;;;;;4977676;28;20036;-80
2023/03/17 04:09:27;;;;;;;5.40;2.10;;;8.60;73.80;;;;;;4974439;28;20026;-82
2023/03/17 04:11:52;;;;;;;6.40;2.17;;;8.50;73.80;;;;;;4974983;28;20543;-81
2023/03/17 04:14:18;;;;;;;4.80;1.83;;;8.60;73.80;;;;;;4991126;28;20033;-81
2023/03/17 04:16:44;;;;;;;5.00;1.93;;;8.60;73.80;;;;;;4975365;28;20030;-81
2023/03/17 04:19:10;;;;;;;4.93;1.80;;;8.60;73.80;;;;;;4992525;28;20031;-81
2023/03/17 04:21:36;;;;;;;4.27;1.63;;;8.60;73.80;;;;;;4992161;28;20710;-81
2023/03/17 04:24:04;;;;;;;4.93;2.10;;;8.60;73.70;;;;;;4975090;28;20471;-81
2023/03/17 04:26:30;;;;;;;5.43;2.23;;;8.50;73.70;;;;;;4975835;28;20045;-81
2023/03/17 04:28:57;;;;;;;7.07;2.23;;;8.50;73.70;;;;;;4992324;28;20030;-82
2023/03/17 04:31:23;;;;;;;3.37;1.63;;;8.50;73.70;;;;;;4992729;28;20081;-80
2023/03/17 04:33:49;;;;;;;6.67;1.70;;;8.50;73.60;;;;;;4975951;28;20122;-82
2023/03/17 04:36:20;;;;;;;4.07;1.67;;;8.50;73.60;;;;;;4993277;28;20034;-81
2023/03/17 04:38:46;;;;;;;3.50;1.60;;;8.50;73.60;;;;;;4979743;28;20026;-82
2023/03/17 04:41:12;;;;;;;5.10;2.23;;;8.50;73.70;;;;;;4998983;28;20088;-82
2023/03/17 04:43:38;;;;;;;7.00;1.80;;;8.40;73.70;;;;;;4998688;28;20034;-81
2023/03/17 04:46:04;;;;;;;4.87;1.77;;;8.40;73.70;;;;;;4980104;28;20049;-82
2023/03/17 04:48:30;;;;;;;5.03;1.90;;;8.30;73.80;;;;;;4995201;28;20026;-82
2023/03/17 04:50:56;;;;;;;4.17;1.67;;;8.30;73.90;;;;;;4979569;28;20074;-81
2023/03/17 04:53:22;;;;;;;3.97;1.40;;;8.30;74.00;;;;;;4995785;28;20039;-81
2023/03/17 04:55:47;;;;;;;4.53;1.57;;;8.30;74.00;;;;;;4995085;28;20030;-81
2023/03/17 04:58:13;;;;;;;4.73;1.83;;;8.20;74.10;;;;;;4979100;28;20042;-81
2023/03/17 05:00:39;;;;;;;4.40;1.27;;;8.30;74.20;;;;;;4996081;28;20033;-81
2023/03/17 05:03:05;;;;;;;3.53;1.40;;;8.30;74.30;;;;;;4963102;28;20149;-81
2023/03/17 05:05:31;;;;;;;3.67;1.40;;;8.30;74.30;;;;;;4978896;28;20514;-82
2023/03/17 05:07:57;;;;;;;6.13;1.37;;;8.30;74.30;;;;;;4978902;28;20037;-82
2023/03/17 05:10:23;;;;;;;3.93;1.73;;;8.30;74.40;;;;;;4995998;28;20030;-82
2023/03/17 05:12:49;;;;;;;4.53;1.80;;;8.30;74.40;;;;;;4979254;28;20030;-82
2023/03/17 05:15:15;;;;;;;3.60;1.50;;;8.30;74.50;;;;;;4995064;28;20034;-82
2023/03/17 05:17:40;;;;;;;3.40;1.60;;;8.20;74.50;;;;;;4996702;28;20085;-81
2023/03/17 05:20:08;;;;;;;3.33;1.63;;;8.20;74.60;;;;;;4979647;28;20015;-81
2023/03/17 05:22:34;;;;;;;5.00;1.50;;;8.30;74.60;;;;;;4979212;28;20515;-81
2023/03/17 05:24:59;;;;;;;5.93;1.30;;;8.20;74.50;;;;;;4996219;28;20121;-83
2023/03/17 05:27:25;;;;;;;6.17;1.77;;;8.20;74.50;;;;;;4995775;28;20034;-81
2023/03/17 05:29:51;;;;;;;4.23;1.50;;;8.20;74.60;;;;;;4996784;28;20058;-82
2023/03/17 05:32:17;;;;;;;3.50;1.70;;;8.20;74.60;;;;;;4995175;28;20022;-82
2023/03/17 05:34:43;;;;;;;4.13;1.77;;;8.20;74.70;;;;;;4996447;28;20031;-82
2023/03/17 05:37:10;;;;;;;5.37;1.80;;;8.10;74.60;;;;;;4995430;28;20114;-82
2023/03/17 05:39:36;;;;;;;4.57;1.60;;;8.10;74.70;;;;;;4995263;28;20113;-82
2023/03/17 05:42:02;;;;;;;3.03;1.70;;;8.20;74.90;;;;;;4978657;28;20517;-82
2023/03/17 05:44:27;;;;;;;4.90;1.53;;;8.10;74.90;;;;;;4978157;28;20038;-81
2023/03/17 05:46:54;;;;;;;3.93;1.93;;;8.10;75.00;;;;;;4977982;28;20494;-81
2023/03/17 05:49:20;;;;;;;4.47;1.70;;;8.00;75.00;;;;;;4961970;28;20061;-82
2023/03/17 05:51:46;;;;;;;4.63;1.97;;;8.00;75.00;;;;;;4994398;28;20031;-82
2023/03/17 05:54:12;;;;;;;4.10;1.80;;;8.00;75.00;;;;;;4994419;28;20041;-82
2023/03/17 05:56:39;;;;;;;6.00;1.93;;;8.00;75.10;;;;;;4994885;28;20026;-82
2023/03/17 05:59:04;;;;;;;5.93;2.30;;;7.90;75.10;;;;;;4978390;28;20381;-82
2023/03/17 06:01:30;;;;;;;5.70;2.13;;;8.00;75.20;;;;;;4994294;28;20027;-82
2023/03/17 06:03:56;;;;;;;5.93;1.90;;;7.90;75.30;;;;;;4994395;28;20038;-82
2023/03/17 06:06:23;;;;;;;6.47;1.77;;;7.90;75.40;;;;;;4961476;28;20426;-82
2023/03/17 06:08:49;;;;;;;4.30;1.87;;;7.90;75.50;;;;;;4978079;28;20030;-82
2023/03/17 06:11:14;;;;;;;4.97;1.87;;;8.00;75.70;;;;;;4978107;28;20475;-82
2023/03/17 06:13:40;;;;;;;7.00;1.80;;;8.00;75.70;;;;;;4994493;28;20033;-82
2023/03/17 06:16:06;;;;;;;4.20;1.70;;;8.00;75.70;;;;;;4993890;28;20037;-82
2023/03/17 06:18:32;;;;;;;6.70;1.90;;;8.00;75.70;;;;;;4994394;28;20030;-82
2023/03/17 06:20:58;;;;;;;6.40;2.20;;;8.00;75.70;;;;;;4995168;28;20479;-82
2023/03/17 06:23:23;;;;;;;4.67;1.93;;;7.90;75.70;;;;;;4993460;28;20026;-82
2023/03/17 06:25:49;;;;;;;5.00;1.83;;;8.00;75.90;;;;;;4977741;28;20034;-82
2023/03/17 06:28:15;;;;;;;5.33;2.03;;;8.00;75.90;;;;;;4993865;28;20031;-82
2023/03/17 06:30:41;;;;;;;8.87;2.20;;;8.00;76.00;;;;;;4977503;28;20053;-82
2023/03/17 06:33:07;;;;;;;5.13;2.20;;;8.00;76.10;;;;;;4993470;28;20062;-82
2023/03/17 06:35:32;;;;;;;5.00;2.27;;;8.00;76.10;;;;;;4993939;28;20052;-82
2023/03/17 06:37:59;;;;;;;5.30;1.97;;;8.00;76.20;;;;;;4993308;28;20469;-82
2023/03/17 06:40:25;;;;;;;6.20;2.40;;;8.00;76.30;;;;;;4977516;28;20034;-82
2023/03/17 06:42:51;;;;;;;6.60;2.27;;;8.00;76.30;;;;;;4994339;28;20058;-82
2023/03/17 06:45:17;;;;;;;5.67;2.43;;;8.00;76.30;;;;;;4960906;28;20069;-82
2023/03/17 06:47:42;;;;;;;4.70;2.10;;;8.10;76.40;;;;;;4976941;28;20036;-82
2023/03/17 06:50:10;;;;;;;5.30;2.30;;;8.00;76.40;;;;;;4977331;28;20023;-83
2023/03/17 06:52:36;;;;;;;6.40;1.90;;;8.10;76.50;;;;;;4977586;28;20386;-82
2023/03/17 06:55:03;;;;;;;5.37;1.80;;;8.10;76.50;;;;;;4977249;28;20475;-82
2023/03/17 06:57:28;;;;;;;5.80;2.10;;;8.10;76.60;;;;;;4977252;28;20030;-82
2023/03/17 06:59:54;;;;;;;8.10;1.90;;;8.20;76.70;;;;;;4993019;28;20437;-82
2023/03/17 07:02:20;;;;;;;3.93;2.00;;;8.20;76.70;;;;;;4976559;28;20477;-82
2023/03/17 07:04:45;;;;;;;6.37;2.10;;;8.30;76.70;;;;;;4961222;28;20090;-82
2023/03/17 07:07:11;;;;;;;9.00;2.63;;;8.30;76.70;;;;;;4977213;28;20035;-82
2023/03/17 07:09:37;;;;;;;3.90;1.93;;;8.40;76.80;;;;;;4994239;28;20078;-82
2023/03/17 07:12:03;;;;;;;3.83;1.60;;;8.40;76.70;;;;;;4978568;28;20046;-82
2023/03/17 07:14:36;;;;;;;7.53;1.93;;;8.50;76.70;;;;;;4994239;28;20054;-83
2023/03/17 07:17:03;;;;;;;7.70;2.23;;;8.60;76.80;;;;;;4977209;28;20026;-82
2023/03/17 07:19:30;;;;;;;7.20;2.37;;;8.60;76.80;;;;;;4977133;28;20031;-82
2023/03/17 07:21:56;;;;;;;7.37;2.20;;;8.70;76.80;;;;;;4993150;28;20113;-82
2023/03/17 07:24:23;;;;;;;7.73;2.10;;;8.80;76.70;;;;;;4961757;28;20118;-82
2023/03/17 07:26:49;;;;;;;6.90;2.13;;;8.90;76.70;;;;;;4977593;28;20529;-82
2023/03/17 07:29:15;;;;;;;7.73;2.30;;;9.00;76.70;;;;;;4994022;28;20031;-82
2023/03/17 07:31:42;;;;;;;4.93;1.83;;;9.00;76.60;;;;;;4976473;28;20118;-81
2023/03/17 07:34:09;;;;;;;3.90;1.80;;;9.20;76.70;;;;;;4997092;28;20027;-81
2023/03/17 07:36:36;;;;;;;4.43;1.80;;;9.20;76.50;;;;;;4997364;28;20026;-82
2023/03/17 07:39:02;;;;;;;9.07;2.73;;;9.30;76.40;;;;;;4979479;28;20540;-82
2023/03/17 07:41:28;;;;;;;4.00;1.80;;;9.40;76.40;;;;;;4994182;28;20054;-82
2023/03/17 07:43:56;;;;;;;5.73;2.13;;;9.40;76.30;;;;;;4994437;28;20105;-82
2023/03/17 07:46:22;;;;;;;5.17;2.27;;;9.60;76.30;;;;;;4993551;28;20046;-81
2023/03/17 07:48:48;;;;;;;6.80;2.27;;;9.60;76.20;;;;;;4993647;28;20031;-82
2023/03/17 07:51:16;;;;;;;4.87;2.00;;;9.70;76.20;;;;;;4993889;28;20490;-82
2023/03/17 07:53:42;;;;;;;7.83;2.23;;;9.80;76.10;;;;;;4992348;28;20180;-82
2023/03/17 07:56:08;;;;;;;6.13;1.87;;;9.90;76.00;;;;;;4976130;28;20055;-82
2023/03/17 07:58:34;;;;;;;5.27;2.07;;;9.90;75.80;;;;;;4994051;28;20034;-82
2023/03/17 08:01:00;;;;;;;4.23;1.73;;;10.00;75.70;;;;;;4993115;28;20495;-82
2023/03/17 08:03:26;;;;;;;7.60;1.97;;;10.10;75.60;;;;;;4976200;28;20023;-82
2023/03/17 08:05:54;;;;;;;5.07;2.23;;;10.10;75.40;;;;;;4976004;28;20047;-82
2023/03/17 08:08:21;;;;;;;6.70;2.03;;;10.20;75.30;;;;;;4976193;28;20109;-83
2023/03/17 08:10:48;;;;;;;6.10;2.03;;;10.30;75.20;;;;;;4994956;28;20037;-82
2023/03/17 08:13:14;;;;;;;4.33;1.90;;;10.30;75.00;;;;;;4980079;28;20037;-83
2023/03/17 08:15:40;;;;;;;5.87;2.07;;;10.40;74.90;;;;;;4979869;28;20022;-82
2023/03/17 08:18:06;;;;;;;4.90;2.07;;;10.50;74.70;;;;;;4979951;28;20042;-82
2023/03/17 08:20:33;;;;;;;5.07;1.80;;;10.60;74.60;;;;;;4997768;28;20101;-82
2023/03/17 08:22:59;;;;;;;5.28;1.52;;;10.70;74.50;;;;;;4980366;28;20026;-83
2023/03/17 08:25:25;;;;;;;4.53;2.00;;;10.80;74.40;;;;;;4979933;28;20475;-82
2023/03/17 08:27:52;;;;;;;8.30;1.77;;;10.80;74.10;;;;;;4979819;28;20038;-83
2023/03/17 08:30:19;;;;;;;4.18;1.80;;;10.90;73.90;;;;;;4979539;28;20018;-82
2023/03/17 08:32:46;;;;;;;5.95;1.73;;;11.00;73.80;;;;;;4979981;28;20493;-82
2023/03/17 08:35:17;;;;;;;5.95;1.83;;;11.10;73.50;;;;;;4995779;28;20050;-82
2023/03/17 08:37:45;;;;;;;7.93;2.45;;;11.10;73.20;;;;;;4979678;28;20080;-83
2023/03/17 08:40:12;;;;;;;4.20;1.60;;;11.20;72.80;;;;;;4979415;28;20033;-83
2023/03/17 08:42:37;;;;;;;5.97;2.03;;;11.20;72.70;;;;;;4997200;28;20395;-82
2023/03/17 08:45:05;;;;;;;7.03;1.52;;;11.30;72.40;;;;;;4979052;28;20034;-83
2023/03/17 08:47:31;;;;;;;7.40;2.50;;;11.40;72.20;;;;;;4996905;28;20057;-83
2023/03/17 08:49:59;;;;;;;5.63;1.48;;;11.40;71.70;;;;;;4979282;28;20166;-83
2023/03/17 08:52:26;;;;;;;4.65;1.60;;;11.50;71.40;;;;;;4996715;28;20101;-82
2023/03/17 08:54:52;;;;;;;5.57;1.58;;;11.60;70.40;;;;;;4996676;28;20169;-82
2023/03/17 08:57:19;;;;;;;3.38;1.38;;;11.70;70.00;;;;;;4978850;28;20077;-81
2023/03/17 08:59:45;;;;;;;5.18;1.45;;;11.80;70.00;;;;;;4995515;28;20041;-82
2023/03/17 09:02:12;;;;;;;4.95;1.50;;;11.90;69.60;;;;;;4978582;28;20031;-82
2023/03/17 09:04:39;;;;;;;6.63;1.77;;;12.00;69.00;;;;;;4996743;28;20128;-82
2023/03/17 09:07:05;;;;;;;8.20;2.05;;;12.10;68.30;;;;;;4979211;28;20031;-81
2023/03/17 09:09:33;;;;;;;6.05;2.03;;;12.10;67.50;;;;;;4979089;28;20428;-82
2023/03/17 09:11:59;;;;;;;5.28;2.00;;;12.20;67.30;;;;;;4996260;28;20069;-82
2023/03/17 09:14:26;;;;;;;7.95;2.35;;;12.20;66.70;;;;;;4979085;28;20049;-82
2023/03/17 09:16:52;;;;;;;7.07;2.03;;;12.30;66.60;;;;;;4979741;28;20117;-82
2023/03/17 09:19:17;;;;;;;5.20;1.77;;;12.30;66.30;;;;;;4995591;28;20054;-82
2023/03/17 09:21:43;;;;;;;4.53;1.83;;;12.40;66.70;;;;;;4979466;28;20427;-81
2023/03/17 09:24:09;;;;;;;5.50;1.67;;;12.40;66.40;;;;;;4980569;28;20057;-83
2023/03/17 09:26:35;;;;;;;5.38;1.77;;;12.50;66.10;;;;;;4983107;28;20125;-83
2023/03/17 09:29:02;;;;;;;6.53;2.28;;;12.60;66.00;;;;;;4998969;28;20471;-82
2023/03/17 09:31:28;;;;;;;4.70;2.13;;;12.60;65.40;;;;;;4996269;28;20034;-82
2023/03/17 09:33:53;;;;;;;7.20;1.95;;;12.70;65.30;;;;;;4979462;28;20029;-82
2023/03/17 09:36:19;;;;;;;5.07;1.55;;;12.80;65.30;;;;;;4963163;28;20393;-82
2023/03/17 09:38:45;;;;;;;6.95;2.08;;;12.80;65.10;;;;;;4994641;28;20065;-83
2023/03/17 09:41:22;;;;;;;7.07;2.05;;;12.90;64.70;;;;;;4962276;28;20065;-82
2023/03/17 09:44:00;;;;;;;7.05;1.70;;;13.00;64.90;;;;;;4994818;28;20034;-83
2023/03/17 09:46:32;;;;;;;6.05;1.80;;;13.10;65.00;;;;;;4994516;28;20038;-83
2023/03/17 09:49:07;;;;;;;5.35;2.00;;;13.20;64.50;;;;;;4994556;28;20062;-82
2023/03/17 09:51:34;;;;;;;4.55;1.70;;;13.40;64.60;;;;;;4977976;28;20023;-83
2023/03/17 09:54:10;;;;;;;7.45;2.17;;;13.50;64.10;;;;;;4994904;28;20073;-82
2023/03/17 09:56:40;;;;;;;6.05;2.20;;;13.60;63.90;;;;;;4978631;28;20022;-82
2023/03/17 09:59:26;;;;;;;5.10;2.03;;;13.80;63.90;;;;;;4978017;28;20466;-81
2023/03/17 10:01:52;;;;;;;5.50;2.30;;;13.90;63.50;;;;;;4993974;28;20434;-82
2023/03/17 10:04:18;;;;;;;4.78;2.08;;;14.10;63.10;;;;;;4977781;28;20061;-82
2023/03/17 10:06:48;;;;;;;5.70;2.08;;;14.20;62.60;;;;;;4977883;28;20034;-83
2023/03/17 10:09:17;;;;;;;7.05;1.90;;;14.30;62.10;;;;;;4977873;28;20026;-83
2023/03/17 10:11:47;;;;;;;8.07;2.30;;;14.40;62.10;;;;;;4995529;28;20022;-81
2023/03/17 10:14:22;;;;;;;5.45;1.45;;;14.60;61.80;;;;;;4995512;28;20026;-83
2023/03/17 10:16:52;;;;;;;4.80;1.73;;;14.90;61.80;;;;;;4977832;28;20035;-83
2023/03/17 10:19:46;;;;;;;4.80;2.05;;;15.10;62.10;;;;;;4994056;28;20102;-83
2023/03/17 10:22:27;;;;;;;5.72;1.63;;;15.40;62.40;;;;;;4978431;28;20026;-82
2023/03/17 10:25:01;;;;;;;5.20;1.92;;;16.00;62.40;;;;;;4980251;28;20023;-83
2023/03/17 10:27:30;;;;;;;4.63;1.67;;;16.50;61.80;;;;;;4982157;28;20022;-83
2023/03/17 10:29:55;;;;;;;5.60;1.80;;;17.10;61.60;;;;;;4979035;28;20498;-83
2023/03/17 10:32:21;;;;;;;5.95;1.35;;;17.60;61.20;;;;;;4961895;28;20026;-83
2023/03/17 10:34:47;;;;;;;7.10;1.55;;;18.00;60.20;;;;;;4994909;28;20109;-83
2023/03/17 10:37:16;;;;;;;4.13;1.48;;;18.40;59.10;;;;;;4993291;28;20026;-83
2023/03/17 10:39:54;;;;;;;5.35;1.90;;;18.60;58.40;;;;;;4977243;28;20523;-83
2023/03/17 10:42:27;;;;;;;6.55;1.73;;;18.70;56.30;;;;;;4995156;28;20061;-82
2023/03/17 10:45:16;;;;;;;4.32;1.70;;;18.70;55.70;;;;;;4977106;28;20035;-83
2023/03/17 10:47:47;;;;;;;5.43;1.73;;;18.60;54.90;;;;;;4969363;28;20030;-83
2023/03/17 10:50:30;;;;;;;6.25;1.63;;;18.60;55.20;;;;;;4977401;28;20027;-83
2023/03/17 10:52:59;;;;;;;3.95;1.45;;;18.60;55.30;;;;;;4976895;28;20483;-83
2023/03/17 10:55:32;;;;;;;4.63;1.90;;;18.60;55.20;;;;;;4977079;28;20053;-83
2023/03/17 10:58:21;;;;;;;6.65;1.65;;;18.80;54.90;;;;;;4976749;28;20019;-83
2023/03/17 11:00:59;;;;;;;5.18;2.15;;;19.10;54.60;;;;;;4992647;28;20117;-84
2023/03/17 11:03:26;;;;;;;4.50;1.58;;;19.40;54.60;;;;;;4977504;28;20026;-83
2023/03/17 11:06:07;;;;;;;5.70;2.10;;;19.70;54.30;;;;;;4976895;28;20062;-83
2023/03/17 11:08:49;;;;;;;4.43;1.60;;;20.10;53.80;;;;;;4993845;28;20022;-83
2023/03/17 11:11:26;;;;;;;6.57;1.55;;;20.40;53.70;;;;;;4994378;28;20022;-84
2023/03/17 11:14:02;;;;;;;4.07;1.55;;;20.70;53.10;;;;;;4976496;28;20033;-83
2023/03/17 11:16:27;;;;;;;5.53;1.83;;;20.80;52.00;;;;;;4993574;28;20092;-83
2023/03/17 11:18:58;;;;;;;4.72;1.70;;;21.00;52.00;;;;;;4994159;28;20022;-83
2023/03/17 11:21:34;;;;;;;3.72;1.70;;;21.30;51.30;;;;;;4976283;28;20030;-83
2023/03/17 11:24:14;;;;;;;4.68;1.40;;;21.60;51.10;;;;;;4994144;28;20382;-82
2023/03/17 11:27:00;;;;;;;4.97;1.60;;;21.80;50.80;;;;;;4976705;28;20077;-82
2023/03/17 11:29:31;;;;;;;4.43;1.52;;;21.90;50.40;;;;;;4994044;28;20030;-82
2023/03/17 11:32:02;;;;;;;4.45;1.05;;;22.00;50.40;;;;;;4993947;28;20022;-82
2023/03/17 11:34:34;;;;;;;5.28;2.17;;;22.00;49.80;;;;;;4976381;28;20029;-82
2023/03/17 11:37:30;;;;;;;4.60;1.70;;;21.70;48.70;;;;;;4994093;28;20386;-82
2023/03/17 11:40:13;;;;;;;6.35;2.28;;;21.40;48.40;;;;;;4966046;28;20125;-82
2023/03/17 11:42:54;;;;;;;3.78;2.15;;;21.10;48.70;;;;;;4976218;28;20038;-82
2023/03/17 11:45:32;;;;;;;8.50;2.05;;;20.90;49.30;;;;;;4992025;28;20487;-83
2023/03/17 11:48:10;;;;;;;5.75;2.10;;;21.00;49.20;;;;;;4976218;28;20030;-83
2023/03/17 11:50:47;;;;;;;3.90;1.60;;;21.00;49.40;;;;;;4993998;28;20085;-83
2023/03/17 11:53:23;;;;;;;5.25;2.03;;;21.10;49.60;;;;;;4993527;28;20062;-83
2023/03/17 11:56:08;;;;;;;5.80;1.98;;;21.60;49.90;;;;;;4976043;28;20030;-83
2023/03/17 11:58:43;;;;;;;6.18;2.22;;;22.10;49.60;;;;;;4976002;28;20513;-83
2023/03/17 12:01:14;;;;;;;6.03;2.15;;;22.60;48.80;;;;;;4976225;28;20022;-83
2023/03/17 12:04:11;;;;;;;4.82;2.17;;;23.00;48.70;;;;;;4976230;28;20047;-83
2023/03/17 12:06:56;;;;;;;6.78;2.40;;;23.40;47.70;;;;;;4976076;28;20111;-81
2023/03/17 12:09:43;;;;;;;7.32;2.22;;;23.90;47.00;;;;;;4994739;28;20019;-81
2023/03/17 12:12:12;;;;;;;3.50;1.70;;;24.00;46.50;;;;;;4991731;28;20054;-81
2023/03/17 12:14:47;;;;;;;6.03;1.60;;;24.10;46.20;;;;;;4974570;28;20023;-80
2023/03/17 12:17:25;;;;;;;4.88;2.00;;;24.20;46.20;;;;;;4991580;28;20117;-82
2023/03/17 12:20:05;;;;;;;5.15;1.77;;;24.20;45.90;;;;;;4993541;28;20038;-81
2023/03/17 12:22:55;;;;;;;6.38;2.33;;;24.40;45.90;;;;;;4993171;28;20018;-81
2023/03/17 12:25:34;;;;;;;5.63;1.67;;;24.60;45.40;;;;;;4991966;28;20034;-82
2023/03/17 12:28:13;;;;;;;4.43;2.03;;;24.80;45.10;;;;;;4993232;28;20471;-81
2023/03/17 12:30:48;;;;;;;6.65;2.08;;;25.10;45.00;;;;;;4993351;28;20173;-81
2023/03/17 12:33:37;;;;;;;5.40;1.80;;;25.30;44.50;;;;;;4993709;28;20066;-81
2023/03/17 12:36:06;;;;;;;3.78;1.80;;;25.50;44.30;;;;;;4993240;28;20394;-81
2023/03/17 12:38:39;;;;;;;5.03;2.10;;;25.70;43.90;;;;;;4993476;28;20387;-82
2023/03/17 12:41:30;;;;;;;4.88;1.95;;;25.80;43.50;;;;;;4992974;28;20054;-81
2023/03/17 12:44:11;;;;;;;6.00;2.00;;;25.90;43.40;;;;;;4991947;28;20030;-81
2023/03/17 12:47:07;;;;;;;6.00;2.13;;;26.00;43.10;;;;;;4991594;28;20045;-81
2023/03/17 12:49:45;;;;;;;6.78;2.13;;;26.30;43.10;;;;;;4993304;28;20031;-81
2023/03/17 12:52:17;;;;;;;4.63;1.63;;;26.50;43.10;;;;;;4992227;28;20092;-81
2023/03/17 12:54:50;;;;;;;3.63;1.45;;;26.70;42.70;;;;;;4993280;28;20027;-80
2023/03/17 12:57:17;;;;;;;;;;;26.70;42.30;;;;;;4977688;28;20548;-81
2023/03/17 12:59:46;;;;;;;5.90;2.25;;;26.40;42.00;;;;;;4995619;28;20274;-81
2023/03/17 13:02:17;;;;;;;5.13;1.48;;;26.10;42.10;;;;;;4978840;28;20057;-81